Latest Weather Observations for Pirlangimpi

IDD60901

Issued at 5:55 pm CST Monday 1 September 2014 (issued every 10 minutes, with the page automatically refreshed every 10 minutes)

About weather observations | Map of Darwin area stations | Latest observations for Darwin area | Other Formats
Station Details ID: 014142 Name: PIRLANGIMPI AIRPORT Lat: -11.40 Lon: 130.42 Height: 18.3 m
Data from the previous 72 hours. | See also: Recent months at Pirlangimpi
Date/Time
CST
Tmp

°C
App
Tmp
°C
Dew
Point
°C
Rel
Hum
%
Delta-T

°C
Wind Press
QNH
hPa
Press
MSL
hPa
Rain
since
9 am
mm
Dir
 
Spd
km/h
Gust
km/h
Spd
kts
Gust
kts
01/05:30pm 28.6 30.4 19.5 58 5.9 NNW 9 19 5 10 1011.5 1011.4 0.0
01/05:00pm 29.6 31.7 20.2 57 6.2 NNW 9 17 5 9 1011.4 1011.3 0.0
01/04:30pm 29.2 30.7 19.8 57 6.2 NNW 11 17 6 9 1011.3 1011.2 0.0
01/04:00pm 29.4 30.5 19.7 56 6.3 NNW 13 20 7 11 1011.2 1011.1 0.0
01/03:30pm 31.7 33.5 20.3 50 7.6 NNW 11 20 6 11 1011.2 1011.1 0.0
01/03:00pm 32.2 33.6 19.5 47 8.4 NW 11 19 6 10 1011.1 1011.0 0.0
01/02:30pm 32.4 33.2 15.8 36 10.4 WSW 6 11 3 6 1011.2 1011.1 0.0
01/02:00pm 31.4 32.8 17.3 43 9.0 WNW 6 15 3 8 1011.8 1011.7 0.0
01/01:30pm 30.9 32.6 18.6 48 8.0 WNW 7 15 4 8 1012.4 1012.3 0.0
01/01:00pm 31.1 32.1 16.3 41 9.3 N 6 13 3 7 1012.8 1012.7 0.0
01/12:30pm 32.6 32.0 14.7 34 11.0 NNE 11 24 6 13 1013.2 1013.1 0.0
01/12:00pm 31.9 32.0 15.4 37 10.2 NE 9 20 5 11 1013.9 1013.8 0.0
01/11:30am 31.3 31.2 16.9 42 9.1 ENE 13 24 7 13 1014.5 1014.4 0.0
01/11:00am 30.2 30.2 18.0 48 7.8 E 15 24 8 13 1014.9 1014.8 0.0
01/10:30am 29.6 30.0 18.1 50 7.4 ENE 13 20 7 11 1015.3 1015.2 0.0
01/10:00am 28.7 30.3 19.1 56 6.2 E 9 19 5 10 1015.5 1015.4 0.0
01/09:30am 25.9 28.3 18.8 65 4.5 S 4 7 2 4 1015.7 1015.6 0.0
01/09:00am 24.2 26.6 18.8 72 3.4 S 4 6 2 3 1015.9 1015.8 0.0
01/08:30am 21.5 23.9 18.7 84 1.8 S 4 6 2 3 1015.7 1015.6 0.0
01/08:00am 19.0 21.4 18.0 94 0.6 SSE 2 4 1 2 1015.5 1015.4 0.0
01/07:30am 16.9 18.9 16.1 95 0.5 CALM 0 0 0 0 1015.3 1015.2 0.0
01/07:00am 16.4 18.2 15.4 94 0.6 CALM 0 0 0 0 1014.9 1014.8 0.0
01/06:30am 16.5 18.3 15.5 94 0.6 ENE 0 0 0 0 1014.6 1014.5 0.0
01/06:00am 16.2 17.9 15.1 93 0.6 ENE 0 0 0 0 1014.4 1014.3 0.0
01/05:30am 16.3 18.0 15.2 93 0.6 CALM 0 0 0 0 1014.0 1013.9 0.0
01/05:00am 16.7 18.5 15.4 92 0.8 CALM 0 0 0 0 1013.7 1013.6 0.0
01/04:30am 16.9 18.7 15.6 92 0.8 CALM 0 0 0 0 1013.5 1013.4 0.0
01/04:00am 17.1 18.3 16.0 93 0.6 NE 4 6 2 3 1013.2 1013.1 0.0
01/03:30am 17.4 19.1 16.3 93 0.7 NE 2 4 1 2 1013.1 1013.0 0.0
01/03:00am 17.6 19.3 16.3 92 0.8 ENE 2 4 1 2 1013.1 1013.0 0.0
01/02:30am 17.8 19.6 16.5 92 0.8 ENE 2 6 1 3 1013.1 1013.0 0.0
01/02:00am 18.0 20.1 16.2 89 1.1 CALM 0 0 0 0 1013.3 1013.2 0.0
01/01:30am 18.2 20.0 16.5 90 1.0 NE 2 6 1 3 1013.6 1013.5 0.0
01/01:00am 18.4 19.9 16.7 90 1.0 NE 4 6 2 3 1013.6 1013.5 0.0
01/12:30am 18.4 20.6 16.6 89 1.1 CALM 0 0 0 0 1013.7 1013.6 0.0
01/12:00am 18.6 20.1 16.6 88 1.2 ENE 4 4 2 2 1013.6 1013.5 0.0
 
Date/Time
CST
Tmp

°C
App
Tmp
°C
Dew
Point
°C
Rel
Hum
%
Delta-T

°C
Wind Press
QNH
hPa
Press
MSL
hPa
Rain
since
9 am
mm
Dir
 
Spd
km/h
Gust
km/h
Spd
kts
Gust
kts
31/11:30pm 19.1 21.0 16.7 86 1.4 ENE 2 4 1 2 1013.7 1013.6 0.0
31/11:00pm 19.4 21.0 16.8 85 1.6 NE 4 6 2 3 1013.4 1013.3 0.0
31/10:30pm 19.9 22.0 17.1 84 1.7 NE 2 6 1 3 1013.4 1013.3 0.0
31/10:00pm 20.4 22.8 17.0 81 2.1 CALM 0 0 0 0 1013.4 1013.3 0.0
31/09:30pm 20.8 23.4 17.4 81 2.1 CALM 0 0 0 0 1013.2 1013.1 0.0
31/09:00pm 21.4 23.6 17.4 78 2.5 N 2 4 1 2 1012.8 1012.7 0.0
31/08:30pm 22.0 24.1 18.2 79 2.4 N 4 7 2 4 1012.2 1012.1 0.0
31/08:00pm 23.0 25.6 18.5 76 2.8 NNW 2 7 1 4 1011.8 1011.7 0.0
31/07:30pm 24.2 26.7 19.1 73 3.3 NW 4 9 2 5 1011.4 1011.3 0.0
31/07:00pm 24.9 26.4 18.8 69 3.9 NNW 9 15 5 8 1011.0 1010.9 0.0
31/06:30pm 25.8 27.6 18.7 65 4.5 NW 7 13 4 7 1010.9 1010.8 0.0
31/06:00pm 26.7 28.5 18.8 62 5.1 NNW 7 17 4 9 1010.7 1010.6 0.0
31/05:30pm 28.4 29.5 18.8 56 6.2 NNW 11 20 6 11 1010.6 1010.5 0.0
31/05:00pm 29.4 30.3 18.5 52 7.0 NW 11 20 6 11 1010.5 1010.4 0.0
31/04:30pm 29.6 30.2 18.7 52 7.0 NNW 13 19 7 10 1010.4 1010.3 0.0
31/04:00pm 30.1 30.4 18.8 50 7.3 NNW 15 28 8 15 1010.5 1010.4 0.0
31/03:30pm 30.8 30.6 18.5 47 8.0 NNW 17 32 9 17 1010.5 1010.4 0.0
31/03:00pm 32.5 30.3 12.2 29 12.0 SSW 15 22 8 12 1010.5 1010.4 0.0
31/02:30pm 32.6 29.3 11.7 28 12.3 SSW 20 30 11 16 1010.6 1010.5 0.0
31/02:00pm 32.1 29.0 12.3 29 11.7 SSW 20 28 11 15 1010.8 1010.7 0.0
31/01:30pm 32.5 29.3 9.9 25 12.9 SSW 17 20 9 11 1011.3 1011.2 0.0
31/01:00pm 32.5 30.8 11.1 27 12.5 SSW 11 19 6 10 1011.9 1011.8 0.0
31/12:30pm 32.3 30.4 10.4 26 12.6 SE 11 24 6 13 1012.4 1012.3 0.0
31/12:00pm 32.2 30.8 10.8 27 12.4 SE 9 20 5 11 1012.9 1012.8 0.0
31/11:30am 31.8 30.8 13.5 32 11.0 E 11 17 6 9 1013.6 1013.5 0.0
31/11:00am 30.4 28.5 11.9 32 10.8 ENE 13 22 7 12 1014.2 1014.1 0.0
31/10:30am 28.8 26.8 12.7 37 9.5 E 15 24 8 13 1014.5 1014.4 0.0
31/10:00am 28.4 29.5 17.0 50 7.1 E 7 15 4 8 1014.9 1014.8 0.0
31/09:30am 26.9 29.2 19.8 65 4.6 E 7 15 4 8 1015.0 1014.9 0.0
31/09:00am 24.4 27.3 19.9 76 2.9 SE 4 6 2 3 1014.9 1014.8 0.0
31/08:30am 21.0 24.2 18.9 88 1.3 CALM 0 0 0 0 1014.8 1014.7 0.0
31/08:00am 18.8 21.5 17.8 94 0.6 CALM 0 0 0 0 1014.4 1014.3 0.0
31/07:30am 17.2 19.3 16.2 94 0.6 CALM 0 2 0 1 1014.2 1014.1 0.0
31/07:00am 16.7 18.2 15.7 94 0.6 E 2 4 1 2 1013.9 1013.8 0.0
31/06:30am 16.5 17.9 15.4 93 0.6 ENE 2 4 1 2 1013.6 1013.5 0.0
31/06:00am 16.6 17.7 15.6 94 0.6 NE 4 6 2 3 1013.4 1013.3 0.0
31/05:30am 16.9 18.1 15.9 94 0.6 ENE 4 6 2 3 1013.4 1013.3 0.0
31/05:00am 17.2 18.9 16.1 93 0.7 ENE 2 2 1 1 1013.1 1013.0 0.0
31/04:30am 17.5 19.3 16.5 94 0.6 E 2 4 1 2 1013.1 1013.0 0.0
31/04:00am 17.4 19.0 15.9 91 0.9 ENE 2 4 1 2 1013.1 1013.0 0.0
31/03:30am 17.7 19.9 16.6 93 0.7 CALM 0 0 0 0 1012.9 1012.8 0.0
31/03:00am 17.8 20.0 16.5 92 0.8 CALM 0 0 0 0 1013.1 1013.0 0.0
31/02:30am 17.9 20.1 16.4 91 0.9 CALM 0 0 0 0 1013.3 1013.2 0.0
31/02:00am 18.2 20.2 16.9 92 0.8 ENE 2 4 1 2 1013.4 1013.3 0.0
31/01:30am 18.2 20.6 16.9 92 0.8 CALM 0 4 0 2 1013.5 1013.4 0.0
31/01:00am 18.1 20.3 16.4 90 1.0 CALM 0 0 0 0 1013.7 1013.6 0.0
31/12:30am 18.3 20.4 16.3 88 1.2 CALM 0 0 0 0 1013.8 1013.7 0.0
31/12:00am 18.4 20.6 16.4 88 1.2 CALM 0 0 0 0 1013.6 1013.5 0.0
 
Date/Time
CST
Tmp

°C
App
Tmp
°C
Dew
Point
°C
Rel
Hum
%
Delta-T

°C
Wind Press
QNH
hPa
Press
MSL
hPa
Rain
since
9 am
mm
Dir
 
Spd
km/h
Gust
km/h
Spd
kts
Gust
kts
30/11:30pm 18.7 20.9 16.5 87 1.3 CALM 0 0 0 0 1013.7 1013.6 0.0
30/11:00pm 19.1 21.0 16.7 86 1.4 NE 2 4 1 2 1013.5 1013.4 0.0
30/10:30pm 19.5 21.9 17.1 86 1.5 CALM 0 0 0 0 1013.4 1013.3 0.0
30/10:00pm 19.9 22.3 16.9 83 1.8 CALM 0 0 0 0 1013.3 1013.2 0.0
30/09:30pm 20.3 22.4 16.3 78 2.4 CALM 0 0 0 0 1013.3 1013.2 0.0
30/09:00pm 21.2 23.5 16.8 76 2.7 CALM 0 0 0 0 1013.2 1013.1 0.0
30/08:30pm 21.9 24.1 16.6 72 3.2 CALM 0 0 0 0 1012.9 1012.8 0.0
30/08:00pm 22.7 24.5 16.5 68 3.8 N 2 4 1 2 1012.7 1012.6 0.0
30/07:30pm 23.9 25.2 17.2 66 4.1 N 6 9 3 5 1012.4 1012.3 0.0
30/07:00pm 25.2 26.6 17.4 62 4.9 WNW 6 15 3 8 1012.2 1012.1 0.0
30/06:30pm 26.1 27.6 17.5 59 5.4 W 6 15 3 8 1011.9 1011.8 0.0
30/06:00pm 27.3 28.6 17.2 54 6.3 W 6 15 3 8 1011.5 1011.4 0.0
30/05:30pm 29.0 30.6 17.8 50 7.1 W 6 11 3 6 1011.2 1011.1 0.0
30/05:00pm 29.9 31.4 17.7 48 7.8 WNW 6 13 3 7 1011.0 1010.9 0.0
30/04:30pm 30.5 31.6 17.2 44 8.4 WNW 7 15 4 8 1010.8 1010.7 0.0
30/04:00pm 31.7 32.7 16.8 40 9.4 NNW 7 15 4 8 1010.7 1010.6 0.0
30/03:30pm 33.8 32.3 9.1 22 14.0 E 7 17 4 9 1010.8 1010.7 0.0
30/03:00pm 34.1 33.2 11.3 25 13.4 ENE 7 15 4 8 1010.9 1010.8 0.0
30/02:30pm 32.2 30.6 13.9 33 11.1 S 15 20 8 11 1011.2 1011.1 0.0
30/02:00pm 31.9 31.1 14.1 34 10.8 S 11 19 6 10 1011.6 1011.5 0.0
30/01:30pm 31.4 29.1 11.7 29 11.5 SW 15 28 8 15 1012.1 1012.0 0.0
30/01:00pm 31.6 30.3 11.4 29 11.8 SW 9 20 5 11 1012.7 1012.6 0.0
30/12:30pm 32.1 31.3 11.8 29 11.9 S 7 15 4 8 1013.1 1013.0 0.0
30/12:00pm 32.3 31.1 11.5 28 12.2 ESE 9 15 5 8 1013.9 1013.8 0.0
30/11:30am 30.9 29.2 11.3 30 11.4 ESE 11 19 6 10 1014.6 1014.5 0.0
30/11:00am 30.1 27.7 10.1 29 11.3 ESE 13 22 7 12 1015.3 1015.2 0.0
30/10:30am 29.9 29.3 12.3 33 10.3 E 7 17 4 9 1015.6 1015.5 0.0
30/10:00am 27.8 28.9 17.0 51 6.8 S 7 11 4 6 1015.8 1015.7 0.0
30/09:30am 25.8 27.3 17.7 61 5.1 S 6 9 3 5 1015.7 1015.6 0.0
30/09:00am 24.0 26.2 18.4 71 3.5 SSE 4 4 2 2 1015.7 1015.6 0.0
30/08:30am 20.7 23.0 18.6 88 1.3 SE 4 6 2 3 1015.6 1015.5 0.0
30/08:00am 19.0 21.1 18.2 95 0.5 SSE 4 6 2 3 1015.4 1015.3 0.0
30/07:30am 17.5 19.1 17.0 97 0.3 SE 4 6 2 3 1015.1 1015.0 0.0
30/07:00am 15.7 16.5 14.9 95 0.5 E 4 6 2 3 1015.0 1014.9 0.0
30/06:30am 15.6 16.3 14.5 93 0.6 ENE 4 4 2 2 1014.7 1014.6 0.0
30/06:00am 16.8 18.1 16.2 96 0.4 ESE 4 4 2 2 1014.4 1014.3 0.0
30/05:30am 15.9 16.7 14.8 93 0.6 SSE 4 6 2 3 1014.2 1014.1 0.0
30/05:00am 16.3 18.0 15.3 94 0.6 CALM 0 4 0 2 1014.0 1013.9 0.0
30/04:30am 16.4 18.1 15.3 93 0.6 CALM 0 0 0 0 1013.9 1013.8 0.0
30/04:00am 16.5 18.1 15.0 91 0.9 CALM 0 0 0 0 1013.9 1013.8 0.0
30/03:30am 17.2 18.9 16.1 93 0.7 NE 2 4 1 2 1013.7 1013.6 0.0
30/03:00am 17.6 19.7 16.3 92 0.8 CALM 0 0 0 0 1013.8 1013.7 0.0
30/02:30am 18.0 20.4 16.9 93 0.7 CALM 0 0 0 0 1013.9 1013.8 0.0
30/02:00am 18.4 21.0 17.6 95 0.5 CALM 0 2 0 1 1014.1 1014.0 0.0
30/01:30am 17.8 20.0 16.5 92 0.8 CALM 0 0 0 0 1014.4 1014.3 0.0
30/01:00am 17.4 19.3 15.7 90 1.0 CALM 0 0 0 0 1014.6 1014.5 0.0
30/12:30am 17.5 19.3 15.5 88 1.2 CALM 0 0 0 0 1014.7 1014.6 0.0
30/12:00am 17.7 19.5 15.5 87 1.3 CALM 0 0 0 0 1014.5 1014.4 0.0
 
Date/Time
CST
Tmp

°C
App
Tmp
°C
Dew
Point
°C
Rel
Hum
%
Delta-T

°C
Wind Press
QNH
hPa
Press
MSL
hPa
Rain
since
9 am
mm
Dir
 
Spd
km/h
Gust
km/h
Spd
kts
Gust
kts
29/11:30pm 17.7 19.3 14.8 83 1.7 CALM 0 0 0 0 1014.6 1014.5 0.0
29/11:00pm 18.1 19.7 14.8 81 1.9 CALM 0 0 0 0 1014.5 1014.4 0.0
29/10:30pm 18.6 20.2 14.9 79 2.2 CALM 0 0 0 0 1014.4 1014.3 0.0
29/10:00pm 19.3 21.2 15.8 80 2.1 CALM 0 0 0 0 1014.4 1014.3 0.0
29/09:30pm 19.6 21.4 15.5 77 2.4 CALM 0 0 0 0 1014.2 1014.1 0.0
29/09:00pm 20.3 22.0 15.3 73 3.0 CALM 0 0 0 0 1014.0 1013.9 0.0
29/08:30pm 21.0 22.3 15.1 69 3.5 NE 2 4 1 2 1013.7 1013.6 0.0
29/08:00pm 22.2 23.6 15.3 65 4.1 NE 2 4 1 2 1013.5 1013.4 0.0
29/07:30pm 22.8 24.4 16.8 69 3.7 NE 4 9 2 5 1013.2 1013.1 0.0
29/07:00pm 24.0 26.0 17.0 65 4.3 WNW 2 4 1 2 1012.8 1012.7 0.0
29/06:30pm 25.6 27.6 17.0 59 5.3 WNW 2 4 1 2 1012.6 1012.5 0.0
29/06:00pm 26.8 28.6 17.3 56 6.0 NW 4 7 2 4 1012.4 1012.3 0.0

Latest Capital City Observations: Canberra | Sydney | Melbourne | Brisbane | Adelaide | Perth | Hobart | Darwin

Other Formats:

Comma delimited format used in spreadsheet applications
http://www.bom.gov.au/fwo/IDD60901/IDD60901.94119.axf

JavaScript Object Notation format (JSON) in row-major order
http://www.bom.gov.au/fwo/IDD60901/IDD60901.94119.json